createdAt,value
2023-05-03T04:04:55.899Z,7.13
2023-05-03T04:16:58.243Z,6.73
2023-05-03T04:19:27.780Z,6.50
2023-05-03T04:31:50.277Z,6.57
2023-05-03T04:43:56.103Z,7.00
2023-05-03T07:56:24.289Z,4.50
2023-05-03T08:02:03.188Z,4.30
2023-05-03T08:04:30.889Z,4.40
2023-05-03T08:07:02.308Z,4.67
2023-05-03T08:09:30.273Z,5.03
2023-05-03T08:11:57.599Z,4.40
2023-05-03T08:14:24.968Z,4.20
2023-05-03T08:16:52.438Z,4.63
2023-05-03T08:19:20.064Z,4.50
2023-05-03T08:21:47.712Z,4.47
2023-05-03T08:24:16.113Z,4.83
2023-05-03T08:26:45.380Z,4.27
2023-05-03T08:29:12.631Z,4.80
2023-05-03T08:31:41.107Z,5.03
2023-05-03T08:34:10.659Z,4.83
2023-05-03T08:36:40.790Z,5.13
2023-05-03T08:39:10.259Z,4.40
2023-05-03T08:41:39.937Z,4.30
2023-05-03T08:44:11.334Z,4.53
2023-05-03T08:46:38.951Z,5.27
2023-05-03T08:49:07.545Z,4.50
2023-05-03T08:51:38.817Z,5.03
2023-05-03T08:54:06.439Z,4.50
2023-05-03T08:56:41.565Z,5.20
2023-05-03T08:59:12.893Z,4.60
2023-05-03T09:01:41.626Z,5.77
2023-05-03T09:04:10.461Z,4.90
2023-05-03T09:06:38.699Z,5.00
2023-05-03T09:09:08.408Z,4.73
2023-05-03T09:11:38.282Z,4.67
2023-05-03T09:14:17.001Z,5.43
2023-05-03T09:16:46.696Z,5.07
2023-05-03T09:19:15.401Z,5.10
2023-05-03T09:21:49.314Z,4.50
2023-05-03T09:24:17.573Z,4.70
2023-05-03T09:26:47.011Z,4.97
2023-05-03T09:29:40.708Z,5.40
2023-05-03T09:32:08.515Z,4.53
2023-05-03T09:34:37.091Z,5.30
2023-05-03T09:37:04.855Z,4.70
2023-05-03T09:39:32.446Z,4.73
2023-05-03T09:42:17.003Z,5.63
2023-05-03T09:44:48.828Z,5.00
2023-05-03T09:47:17.037Z,5.10
2023-05-03T09:49:44.774Z,5.37
2023-05-03T09:52:13.250Z,5.33
2023-05-03T09:54:42.625Z,4.90
2023-05-03T09:57:12.422Z,5.43
2023-05-03T09:59:39.935Z,5.00
2023-05-03T10:02:08.884Z,5.17
2023-05-03T10:04:43.586Z,4.97
2023-05-03T10:07:15.178Z,4.70
2023-05-03T10:09:48.260Z,5.30
2023-05-03T10:12:25.791Z,4.83
2023-05-03T10:14:55.406Z,5.27
2023-05-03T10:17:47.367Z,5.20
2023-05-03T10:23:35.190Z,5.33
2023-05-03T10:57:00.856Z,5.10
2023-05-03T11:48:22.511Z,4.30
2023-05-03T11:50:55.992Z,3.87
2023-05-03T13:16:46.159Z,4.87
2023-05-03T13:32:33.370Z,3.33
2023-05-03T13:35:01.491Z,4.00
2023-05-03T13:37:30.679Z,3.77
2023-05-03T13:39:59.077Z,4.13
2023-05-03T13:42:26.927Z,3.80
2023-05-03T13:44:54.366Z,4.13
2023-05-03T13:47:21.865Z,4.00
2023-05-03T13:49:49.452Z,3.90
2023-05-03T13:52:16.927Z,4.30
2023-05-03T14:00:57.699Z,3.10
2023-05-03T14:03:25.495Z,3.27
2023-05-03T14:09:04.552Z,3.50
2023-05-03T14:20:34.527Z,3.70
2023-05-03T14:23:04.058Z,3.67
2023-05-03T14:25:37.668Z,4.43
2023-05-03T14:28:07.945Z,3.23
2023-05-03T14:30:36.450Z,3.83
2023-05-03T14:33:03.929Z,3.37
2023-05-03T15:03:54.577Z,3.30
2023-05-03T15:11:10.803Z,3.70
2023-05-03T15:13:38.742Z,3.27
2023-05-03T15:16:06.693Z,3.23
2023-05-03T15:18:34.076Z,3.03
2023-05-03T15:21:02.897Z,2.93
2023-05-03T15:23:30.226Z,3.10
2023-05-03T15:25:58.130Z,3.37
2023-05-03T15:28:25.785Z,3.27
2023-05-03T15:30:53.148Z,3.30
2023-05-03T15:33:20.906Z,3.43
2023-05-03T15:35:48.362Z,2.80
2023-05-03T15:38:17.726Z,2.60
2023-05-03T15:40:44.993Z,3.37
2023-05-03T15:43:12.516Z,3.23
2023-05-03T15:45:39.875Z,3.17
2023-05-03T15:48:09.651Z,3.07
2023-05-03T15:50:37.652Z,3.00
2023-05-03T15:53:05.012Z,3.07
2023-05-03T15:55:35.211Z,3.50
2023-05-03T15:58:07.426Z,3.20
2023-05-03T16:00:35.372Z,3.20
2023-05-03T16:03:03.320Z,2.80
2023-05-03T16:17:31.591Z,3.17
2023-05-03T16:19:59.036Z,3.13
2023-05-03T16:22:27.567Z,2.97
2023-05-03T16:24:55.223Z,2.97
2023-05-03T16:27:22.578Z,3.60
2023-05-03T16:29:49.866Z,2.90
2023-05-03T16:32:17.272Z,3.03
2023-05-03T16:34:44.576Z,2.67
2023-05-03T16:37:12.046Z,2.87
2023-05-03T16:39:40.138Z,3.13
2023-05-03T16:42:07.999Z,3.10
2023-05-03T16:44:36.920Z,3.17
2023-05-03T16:47:05.753Z,2.80
2023-05-03T16:49:34.289Z,2.40
2023-05-03T16:52:02.197Z,2.40
2023-05-03T16:54:29.552Z,2.43
2023-05-03T16:56:56.832Z,3.10
2023-05-03T16:59:24.478Z,2.77
2023-05-03T17:01:52.095Z,2.17
2023-05-03T17:04:19.624Z,2.53
2023-05-03T17:06:47.163Z,2.57
2023-05-03T17:09:16.689Z,2.40
2023-05-03T17:11:44.041Z,2.53
2023-05-03T17:14:11.606Z,2.03
2023-05-03T17:16:44.505Z,3.53
2023-05-03T17:19:12.415Z,3.20
2023-05-03T17:21:39.738Z,2.93
2023-05-03T17:24:07.367Z,2.67
2023-05-03T17:26:35.425Z,2.40
2023-05-03T17:29:03.167Z,2.97
2023-05-03T17:31:30.475Z,2.77
2023-05-03T17:33:58.308Z,2.37
2023-05-03T17:36:25.792Z,2.53
2023-05-03T17:38:53.239Z,2.30
2023-05-03T17:41:21.478Z,2.27
2023-05-03T17:43:50.339Z,2.60
2023-05-03T17:46:20.132Z,2.63
2023-05-03T17:48:48.477Z,2.20
2023-05-03T17:51:15.969Z,2.70
2023-05-03T17:53:43.361Z,2.53
2023-05-03T17:56:14.966Z,2.17
2023-05-03T17:58:43.830Z,2.40
2023-05-03T18:01:13.442Z,2.33
2023-05-03T18:03:43.845Z,2.40
2023-05-03T18:06:13.206Z,1.90
2023-05-03T18:08:41.987Z,2.00
2023-05-03T18:11:10.326Z,2.37
2023-05-03T18:13:40.692Z,2.30
2023-05-03T18:16:08.875Z,2.37
2023-05-03T18:18:37.577Z,2.40
2023-05-03T18:21:05.922Z,2.33
2023-05-03T18:23:33.515Z,2.10
2023-05-03T18:26:00.956Z,2.10
2023-05-03T18:28:28.419Z,2.23
2023-05-03T18:30:56.261Z,2.00
2023-05-03T18:39:50.363Z,1.93
2023-05-03T18:42:20.146Z,2.37
2023-05-03T18:44:47.835Z,2.03
